createdAt,value
2022-07-27T00:01:32.976Z,3.97
2022-07-27T00:04:01.271Z,4.20
2022-07-27T00:06:29.413Z,4.22
2022-07-27T00:08:57.538Z,4.00
2022-07-27T00:11:27.029Z,3.97
2022-07-27T00:13:56.540Z,4.10
2022-07-27T00:16:24.738Z,3.88
2022-07-27T00:18:53.015Z,3.83
2022-07-27T00:21:21.276Z,3.75
2022-07-27T00:23:49.721Z,3.70
2022-07-27T00:26:18.042Z,3.90
2022-07-27T00:28:47.561Z,3.97
2022-07-27T00:31:15.848Z,3.65
2022-07-27T00:33:43.994Z,3.67
2022-07-27T00:36:12.165Z,3.88
2022-07-27T00:38:40.387Z,3.35
2022-07-27T00:41:08.645Z,3.55
2022-07-27T00:43:55.158Z,3.83
2022-07-27T00:46:23.388Z,3.60
2022-07-27T00:48:52.319Z,3.80
2022-07-27T00:51:22.555Z,3.80
2022-07-27T00:53:52.505Z,3.97
2022-07-27T00:56:20.666Z,3.53
2022-07-27T00:58:50.752Z,3.50
2022-07-27T01:01:21.274Z,3.85
2022-07-27T01:03:49.704Z,3.65
2022-07-27T01:06:26.827Z,3.47
2022-07-27T01:09:16.062Z,4.00
2022-07-27T01:11:44.920Z,3.80
2022-07-27T01:14:14.474Z,3.70
2022-07-27T01:16:44.556Z,3.63
2022-07-27T01:19:15.065Z,3.60
2022-07-27T01:21:44.956Z,3.92
2022-07-27T01:24:13.159Z,3.83
2022-07-27T01:26:41.480Z,3.83
2022-07-27T01:29:09.908Z,3.70
2022-07-27T01:31:38.298Z,3.75
2022-07-27T01:34:06.914Z,3.90
2022-07-27T01:36:35.078Z,4.03
2022-07-27T01:39:05.340Z,3.80
2022-07-27T01:41:33.446Z,3.63
2022-07-27T01:44:01.512Z,3.50
2022-07-27T01:46:29.790Z,3.58
2022-07-27T01:48:57.973Z,3.70
2022-07-27T01:51:26.254Z,4.03
2022-07-27T01:53:54.401Z,3.45
2022-07-27T01:56:24.045Z,3.55
2022-07-27T01:58:52.244Z,3.67
2022-07-27T02:01:20.452Z,4.18
2022-07-27T02:03:48.665Z,4.00
2022-07-27T02:06:16.904Z,3.47
2022-07-27T02:08:44.983Z,3.75
2022-07-27T02:11:44.955Z,4.25
2022-07-27T02:14:14.444Z,3.72
2022-07-27T02:16:42.680Z,3.72
2022-07-27T02:19:11.526Z,3.65
2022-07-27T02:21:40.520Z,4.07
2022-07-27T02:24:09.028Z,3.83
2022-07-27T02:26:37.259Z,4.03
2022-07-27T02:29:05.443Z,4.07
2022-07-27T02:31:35.384Z,4.22
2022-07-27T02:34:03.764Z,4.30
2022-07-27T02:36:31.975Z,3.92
2022-07-27T02:39:00.231Z,4.18
2022-07-27T02:41:28.447Z,3.90
2022-07-27T02:43:56.548Z,4.30
2022-07-27T02:46:24.676Z,4.10
2022-07-27T02:48:54.308Z,4.38
2022-07-27T02:51:22.489Z,4.70
2022-07-27T02:53:50.619Z,4.57
2022-07-27T02:56:18.889Z,4.30
2022-07-27T02:58:47.118Z,4.82
2022-07-27T03:01:16.258Z,4.40
2022-07-27T03:03:44.579Z,4.47
2022-07-27T03:06:14.374Z,4.32
2022-07-27T03:08:42.535Z,4.28
2022-07-27T03:11:10.977Z,4.32
2022-07-27T03:13:39.111Z,5.18
2022-07-27T03:16:07.716Z,4.88
2022-07-27T03:18:35.909Z,5.00
2022-07-27T03:21:04.043Z,5.10
2022-07-27T03:23:33.592Z,5.57
2022-07-27T03:26:01.780Z,5.65
2022-07-27T03:28:29.923Z,5.50
2022-07-27T03:30:58.091Z,5.22
2022-07-27T03:33:26.306Z,5.00
2022-07-27T03:35:54.420Z,5.18
2022-07-27T03:38:23.717Z,5.72
2022-07-27T03:40:53.498Z,5.60
2022-07-27T03:43:21.691Z,5.00
2022-07-27T03:45:49.997Z,5.43
2022-07-27T03:48:18.139Z,4.88
2022-07-27T03:50:46.304Z,5.00
2022-07-27T03:53:14.827Z,5.43
2022-07-27T03:55:42.931Z,5.00
2022-07-27T03:58:12.376Z,5.78
2022-07-27T04:00:40.536Z,5.03
2022-07-27T04:03:08.679Z,5.95
2022-07-27T04:05:36.896Z,5.60
2022-07-27T04:08:05.175Z,5.60
2022-07-27T04:10:33.328Z,5.63
2022-07-27T04:13:01.541Z,5.18
2022-07-27T04:15:33.109Z,5.55
2022-07-27T04:18:01.475Z,5.65
2022-07-27T04:20:29.706Z,8.25
2022-07-27T04:22:57.960Z,6.00
2022-07-27T04:25:26.283Z,5.90
2022-07-27T04:27:55.309Z,6.03
2022-07-27T04:30:24.327Z,5.78
2022-07-27T04:32:54.014Z,6.25
2022-07-27T04:35:26.289Z,6.07
2022-07-27T04:37:58.415Z,6.35
2022-07-27T04:40:33.002Z,6.10
2022-07-27T04:43:02.274Z,5.95
2022-07-27T04:45:30.753Z,6.53
2022-07-27T04:48:01.237Z,6.55
2022-07-27T04:50:29.482Z,5.72
2022-07-27T04:52:59.665Z,6.13
2022-07-27T04:55:27.834Z,5.85
2022-07-27T04:57:55.930Z,5.78
2022-07-27T05:00:24.174Z,5.70
2022-07-27T05:02:52.356Z,5.68
2022-07-27T05:05:22.175Z,5.43
2022-07-27T05:07:50.358Z,5.40
2022-07-27T05:10:20.539Z,5.93
2022-07-27T05:12:49.676Z,5.25
2022-07-27T05:15:18.034Z,5.68
2022-07-27T05:17:46.285Z,5.60
2022-07-27T05:20:15.165Z,5.70
2022-07-27T05:22:44.655Z,5.72
2022-07-27T05:25:12.888Z,5.57
2022-07-27T05:27:53.871Z,5.35
2022-07-27T05:30:24.432Z,5.72
2022-07-27T05:32:53.168Z,5.25
2022-07-27T05:35:21.588Z,5.38
2022-07-27T05:37:51.137Z,5.55
2022-07-27T05:40:19.343Z,5.72
2022-07-27T05:42:47.546Z,5.35
2022-07-27T05:45:16.476Z,4.97
2022-07-27T05:47:44.627Z,5.25
2022-07-27T05:50:12.797Z,5.40
2022-07-27T05:52:40.953Z,5.55
2022-07-27T05:55:12.033Z,5.07
2022-07-27T05:57:41.363Z,5.30
2022-07-27T06:00:10.948Z,6.07
2022-07-27T06:02:42.366Z,5.57
2022-07-27T06:05:15.476Z,5.55
2022-07-27T06:07:58.980Z,9.98
2022-07-27T06:10:29.414Z,5.05
2022-07-27T06:12:57.980Z,3.70
2022-07-27T06:15:26.482Z,3.50
2022-07-27T06:17:54.787Z,3.60
2022-07-27T06:20:24.145Z,3.42
2022-07-27T06:22:54.244Z,3.53
2022-07-27T06:25:23.453Z,3.22
2022-07-27T06:28:04.820Z,3.10
2022-07-27T06:30:33.509Z,3.13
2022-07-27T06:33:04.292Z,2.92
2022-07-27T06:35:33.964Z,2.40
2022-07-27T06:38:02.875Z,2.67
2022-07-27T06:40:32.267Z,2.90
2022-07-27T06:43:00.697Z,2.70
2022-07-27T06:45:30.244Z,2.83
2022-07-27T06:47:58.385Z,4.13
2022-07-27T06:50:26.968Z,4.15
2022-07-27T06:52:55.171Z,2.75
2022-07-27T06:55:23.318Z,3.78
2022-07-27T06:57:51.520Z,2.70
2022-07-27T07:00:19.676Z,3.10
2022-07-27T07:02:57.207Z,3.10
2022-07-27T07:05:26.284Z,2.60
2022-07-27T07:07:55.476Z,2.78
2022-07-27T07:10:24.824Z,3.13
2022-07-27T07:12:55.941Z,2.65
2022-07-27T07:15:25.488Z,2.80
2022-07-27T07:17:55.200Z,2.40
2022-07-27T07:20:23.620Z,3.63
2022-07-27T07:22:51.956Z,2.88
2022-07-27T07:25:20.211Z,2.97
2022-07-27T07:27:49.183Z,2.55
2022-07-27T07:30:17.789Z,2.80
2022-07-27T07:32:46.115Z,2.90
2022-07-27T07:35:16.147Z,3.10
2022-07-27T07:37:44.267Z,3.25
2022-07-27T07:43:02.654Z,5.30
2022-07-27T07:45:32.359Z,3.13
2022-07-27T07:48:00.989Z,2.58
2022-07-27T07:50:30.584Z,2.58
2022-07-27T07:52:58.736Z,2.72
2022-07-27T07:55:28.904Z,2.50
2022-07-27T07:57:59.977Z,2.22
2022-07-27T08:00:28.230Z,2.85
2022-07-27T08:02:58.908Z,2.60
2022-07-27T08:05:28.610Z,3.90
2022-07-27T08:07:58.144Z,5.70
2022-07-27T08:10:26.344Z,2.80
2022-07-27T08:12:56.849Z,3.47
2022-07-27T08:15:34.945Z,3.75
2022-07-27T08:18:04.424Z,2.78
2022-07-27T08:20:32.704Z,2.50
2022-07-27T08:23:02.829Z,2.95
2022-07-27T08:25:31.090Z,2.88
2022-07-27T08:27:59.660Z,4.82
2022-07-27T08:30:28.429Z,7.15
2022-07-27T08:33:02.158Z,4.88
2022-07-27T08:35:31.870Z,3.90
2022-07-27T08:38:02.707Z,3.97
2022-07-27T08:40:41.456Z,3.00
2022-07-27T08:43:12.073Z,3.47
2022-07-27T08:45:44.266Z,2.35
2022-07-27T08:48:14.938Z,9.60
2022-07-27T08:50:43.563Z,3.40
2022-07-27T08:53:14.629Z,6.10
2022-07-27T08:55:44.880Z,5.05
2022-07-27T08:58:17.465Z,4.60
2022-07-27T09:00:50.068Z,3.53
2022-07-27T09:03:21.380Z,16.00
2022-07-27T09:05:53.229Z,4.10
2022-07-27T09:08:25.214Z,5.30
2022-07-27T09:10:55.672Z,6.07
2022-07-27T09:13:26.885Z,5.60
2022-07-27T09:16:17.513Z,5.70
2022-07-27T09:18:44.890Z,5.90
2022-07-27T09:21:15.722Z,7.07
2022-07-27T09:23:48.105Z,6.63
2022-07-27T09:26:31.816Z,7.00
2022-07-27T09:29:03.199Z,8.43
2022-07-27T09:31:32.439Z,9.40
2022-07-27T09:34:05.448Z,8.68
2022-07-27T09:36:33.793Z,8.25
2022-07-27T09:39:06.952Z,7.53
2022-07-27T09:41:43.694Z,7.57
2022-07-27T09:44:31.297Z,7.43
2022-07-27T09:47:00.729Z,7.28
2022-07-27T09:49:35.012Z,7.18
2022-07-27T09:52:05.230Z,7.95
2022-07-27T09:54:47.266Z,8.00
2022-07-27T09:57:15.857Z,10.15
2022-07-27T09:59:43.989Z,10.02
2022-07-27T10:02:14.411Z,7.88
2022-07-27T10:04:43.647Z,7.80
2022-07-27T10:07:13.964Z,9.05
2022-07-27T10:09:43.334Z,7.50
2022-07-27T10:12:13.070Z,7.03
2022-07-27T10:14:41.448Z,7.60
2022-07-27T10:17:23.386Z,7.38
2022-07-27T10:19:51.742Z,7.20
2022-07-27T10:22:55.657Z,6.85
2022-07-27T10:25:24.821Z,7.15
2022-07-27T10:28:13.490Z,14.27
2022-07-27T10:30:42.033Z,6.35
2022-07-27T10:33:14.899Z,5.25
2022-07-27T10:35:43.806Z,6.03
2022-07-27T10:38:15.408Z,4.63
2022-07-27T10:40:44.864Z,5.50
2022-07-27T10:43:21.161Z,7.35
2022-07-27T10:46:01.015Z,6.95
2022-07-27T10:48:42.729Z,6.85
2022-07-27T10:51:18.773Z,5.57
2022-07-27T10:56:47.294Z,5.10
2022-07-27T10:59:58.197Z,5.15
2022-07-27T11:02:40.014Z,4.10
2022-07-27T11:05:18.348Z,4.90
2022-07-27T11:08:35.249Z,5.50
2022-07-27T11:10:46.021Z,5.18
2022-07-27T11:13:14.635Z,4.95
2022-07-27T11:15:55.958Z,5.20
2022-07-27T11:18:28.616Z,4.75
2022-07-27T11:21:14.898Z,6.38
2022-07-27T11:23:51.737Z,4.97
2022-07-27T11:26:21.332Z,7.35
2022-07-27T11:28:50.413Z,5.63
2022-07-27T11:31:38.699Z,5.20
2022-07-27T11:34:09.063Z,7.50
2022-07-27T11:36:40.510Z,5.63
2022-07-27T11:39:14.751Z,4.10
2022-07-27T11:44:33.025Z,4.57
2022-07-27T11:47:04.494Z,7.05
2022-07-27T11:49:34.211Z,10.20
2022-07-27T11:52:05.211Z,8.20
2022-07-27T11:54:35.609Z,5.35
2022-07-27T11:57:06.025Z,4.55
2022-07-27T11:59:35.772Z,4.68
2022-07-27T12:02:07.170Z,4.40
2022-07-27T12:04:37.114Z,4.22
2022-07-27T12:07:10.645Z,4.10
2022-07-27T12:09:41.016Z,4.78
2022-07-27T12:12:15.055Z,8.60
2022-07-27T12:14:45.961Z,4.75
2022-07-27T12:17:21.248Z,7.25
2022-07-27T12:20:05.480Z,4.40
2022-07-27T12:22:37.634Z,3.95
2022-07-27T12:25:16.433Z,4.50
2022-07-27T12:27:56.450Z,3.90
2022-07-27T12:30:32.010Z,4.03
2022-07-27T12:33:02.804Z,4.30
2022-07-27T12:35:37.848Z,3.90
2022-07-27T12:38:11.028Z,4.95
2022-07-27T12:40:46.313Z,4.65
2022-07-27T12:43:18.434Z,4.80
2022-07-27T12:45:47.896Z,5.07
2022-07-27T12:48:20.254Z,4.40
2022-07-27T12:50:50.365Z,5.43
2022-07-27T12:53:18.955Z,4.18
2022-07-27T12:55:47.275Z,4.13
2022-07-27T12:58:15.533Z,3.55
2022-07-27T13:00:44.181Z,5.07
2022-07-27T13:03:12.391Z,12.02
2022-07-27T13:05:42.486Z,6.30
2022-07-27T13:08:11.560Z,4.13
2022-07-27T13:10:44.382Z,3.85
2022-07-27T13:13:13.170Z,6.93
2022-07-27T13:15:41.399Z,3.50
2022-07-27T13:18:09.623Z,3.20
2022-07-27T13:20:37.909Z,3.60
2022-07-27T13:23:10.039Z,3.90
2022-07-27T13:25:43.084Z,3.60
2022-07-27T13:28:11.743Z,3.22
2022-07-27T13:30:39.892Z,3.13
2022-07-27T13:33:08.643Z,3.55
2022-07-27T13:35:37.327Z,3.65
2022-07-27T13:38:05.606Z,3.30
2022-07-27T13:40:35.082Z,2.90
2022-07-27T13:43:03.332Z,3.30
2022-07-27T13:45:43.499Z,3.40
2022-07-27T13:48:13.163Z,3.50
2022-07-27T13:50:42.128Z,3.90
2022-07-27T13:53:15.244Z,4.30
2022-07-27T13:55:45.653Z,3.10
2022-07-27T13:58:13.911Z,3.00
2022-07-27T14:00:42.418Z,2.85
2022-07-27T14:03:11.484Z,3.53
2022-07-27T14:05:43.571Z,3.35
2022-07-27T14:08:18.012Z,3.30
2022-07-27T14:10:47.650Z,3.30
2022-07-27T14:13:17.639Z,3.20
2022-07-27T14:15:52.586Z,3.83
2022-07-27T14:18:27.404Z,4.07
2022-07-27T14:20:56.156Z,2.97
2022-07-27T14:23:25.107Z,6.97
2022-07-27T14:25:56.943Z,9.10
2022-07-27T14:28:26.034Z,3.70
2022-07-27T14:30:55.012Z,5.50
2022-07-27T14:33:23.812Z,3.55
2022-07-27T14:35:52.270Z,3.72
2022-07-27T14:38:24.941Z,3.55
2022-07-27T14:41:01.748Z,3.78
2022-07-27T14:43:30.746Z,3.40
2022-07-27T14:45:59.427Z,3.30
2022-07-27T14:49:02.901Z,3.10
2022-07-27T14:51:16.321Z,3.15
2022-07-27T14:53:44.488Z,3.42
2022-07-27T14:56:14.201Z,3.38
2022-07-27T14:58:42.363Z,3.50
2022-07-27T15:01:10.882Z,3.40
2022-07-27T15:03:39.094Z,3.28
2022-07-27T15:06:07.307Z,3.00
2022-07-27T15:08:35.493Z,3.58
2022-07-27T15:11:03.839Z,3.38
2022-07-27T15:13:34.088Z,3.20
2022-07-27T15:16:03.197Z,5.85
2022-07-27T15:18:36.498Z,3.45
2022-07-27T15:21:08.514Z,11.38
2022-07-27T15:23:43.525Z,3.40
2022-07-27T15:26:13.025Z,4.30
2022-07-27T15:28:43.000Z,3.72
2022-07-27T15:31:11.493Z,3.80
2022-07-27T15:33:39.929Z,3.40
2022-07-27T15:36:08.147Z,3.30
2022-07-27T15:38:36.739Z,3.35
2022-07-27T15:41:05.426Z,3.53
2022-07-27T15:43:34.398Z,3.58
2022-07-27T15:46:06.845Z,3.45
2022-07-27T15:48:36.183Z,3.50
2022-07-27T15:51:05.102Z,3.33
2022-07-27T15:53:34.712Z,3.20
2022-07-27T15:56:02.892Z,3.30
2022-07-27T15:58:31.189Z,5.40
2022-07-27T16:00:59.595Z,10.40
2022-07-27T16:03:29.979Z,5.05
2022-07-27T16:05:58.308Z,2.88
2022-07-27T16:08:27.762Z,3.60
2022-07-27T16:10:55.964Z,4.50
2022-07-27T16:13:24.628Z,3.83
2022-07-27T16:16:10.485Z,3.15
2022-07-27T16:18:40.414Z,2.97
2022-07-27T16:21:09.145Z,3.13
2022-07-27T16:23:37.524Z,3.42
2022-07-27T16:26:06.668Z,6.32
2022-07-27T16:28:38.828Z,3.50
2022-07-27T16:31:08.922Z,2.95
2022-07-27T16:33:37.337Z,2.97
2022-07-27T16:36:08.609Z,2.88
2022-07-27T16:38:37.668Z,2.50
2022-07-27T16:41:17.484Z,2.70
2022-07-27T16:43:46.191Z,2.80
2022-07-27T16:46:14.479Z,2.60
2022-07-27T16:48:43.782Z,2.20
2022-07-27T16:51:15.103Z,2.70
2022-07-27T16:53:48.084Z,2.70
2022-07-27T16:56:16.718Z,2.05
2022-07-27T16:58:45.304Z,2.00
2022-07-27T17:01:22.330Z,1.90
2022-07-27T17:03:56.382Z,2.08
2022-07-27T17:06:27.345Z,1.50
2022-07-27T17:08:56.067Z,1.80
2022-07-27T17:11:24.854Z,2.03
2022-07-27T17:13:58.274Z,1.60
2022-07-27T17:16:28.185Z,1.88
2022-07-27T17:18:56.764Z,2.40
2022-07-27T17:21:26.568Z,2.17
2022-07-27T17:23:55.526Z,2.08
2022-07-27T17:26:24.785Z,2.38
2022-07-27T17:28:53.622Z,2.85
2022-07-27T17:31:23.627Z,2.90
2022-07-27T17:33:52.701Z,3.00
2022-07-27T17:36:21.702Z,3.28
2022-07-27T17:38:51.846Z,3.33
2022-07-27T17:41:24.528Z,2.90
2022-07-27T17:43:54.195Z,3.40
2022-07-27T17:46:23.142Z,3.33
2022-07-27T17:48:51.947Z,2.70
2022-07-27T17:51:21.176Z,2.60
2022-07-27T17:53:49.536Z,2.40
2022-07-27T17:56:19.101Z,2.70
2022-07-27T17:58:48.224Z,2.92
2022-07-27T18:01:16.438Z,3.00
2022-07-27T18:03:44.848Z,2.92
2022-07-27T18:06:13.050Z,2.70
2022-07-27T18:08:41.258Z,2.60
2022-07-27T18:11:13.502Z,2.70
2022-07-27T18:13:43.322Z,2.20
2022-07-27T18:16:13.952Z,3.03
2022-07-27T18:18:45.518Z,2.80
2022-07-27T18:21:15.798Z,2.40
2022-07-27T18:23:44.054Z,2.90
2022-07-27T18:26:12.806Z,2.25
2022-07-27T18:28:41.075Z,2.55
2022-07-27T18:31:13.599Z,2.47
2022-07-27T18:33:45.944Z,2.55
2022-07-27T18:36:14.435Z,2.33
2022-07-27T18:38:44.990Z,2.50
2022-07-27T18:41:13.957Z,2.70
2022-07-27T18:43:42.191Z,2.83
2022-07-27T18:46:12.609Z,2.55
2022-07-27T18:48:40.893Z,2.50
2022-07-27T18:51:09.337Z,2.72
2022-07-27T18:53:37.653Z,2.70
2022-07-27T18:56:06.403Z,2.58
2022-07-27T18:58:34.905Z,2.65
2022-07-27T19:01:03.220Z,1.88
2022-07-27T19:03:32.780Z,2.13
2022-07-27T19:06:02.670Z,2.00
2022-07-27T19:08:30.849Z,2.00
2022-07-27T19:10:59.331Z,1.80
2022-07-27T19:13:27.456Z,2.00
2022-07-27T19:15:55.743Z,2.22
2022-07-27T19:18:25.216Z,2.10
2022-07-27T19:20:55.561Z,2.00
2022-07-27T19:23:25.148Z,2.30
2022-07-27T19:25:59.210Z,2.42
2022-07-27T19:28:28.369Z,2.15
2022-07-27T19:30:56.545Z,2.50
2022-07-27T19:33:24.774Z,2.58
2022-07-27T19:35:55.647Z,2.42
2022-07-27T19:38:23.983Z,2.70
2022-07-27T19:40:52.230Z,2.55
2022-07-27T19:43:20.650Z,2.65
2022-07-27T19:45:50.583Z,4.20
2022-07-27T19:48:21.556Z,3.15
2022-07-27T19:50:49.740Z,3.03
2022-07-27T19:53:19.331Z,2.90
2022-07-27T19:55:47.621Z,4.00
2022-07-27T19:58:15.856Z,3.58
2022-07-27T20:00:46.258Z,3.45
2022-07-27T20:03:14.885Z,3.65
2022-07-27T20:05:43.072Z,3.60
2022-07-27T20:08:11.275Z,3.38
2022-07-27T20:10:41.043Z,3.50
2022-07-27T20:13:09.388Z,3.72
2022-07-27T20:15:38.138Z,3.50
2022-07-27T20:18:07.626Z,3.40
2022-07-27T20:20:35.915Z,3.50
2022-07-27T20:23:04.281Z,3.60
2022-07-27T20:25:32.473Z,3.60
2022-07-27T20:28:03.094Z,3.17
2022-07-27T20:30:31.537Z,3.50
2022-07-27T20:32:59.661Z,3.63
2022-07-27T20:35:35.225Z,3.13
2022-07-27T20:38:06.121Z,3.33
2022-07-27T20:40:34.216Z,3.28
2022-07-27T20:43:03.940Z,3.33
2022-07-27T20:45:32.392Z,3.22
2022-07-27T20:48:00.716Z,3.10
2022-07-27T20:50:28.905Z,2.85
2022-07-27T20:52:58.155Z,2.80
2022-07-27T20:55:26.288Z,3.03
2022-07-27T20:57:54.540Z,3.10
2022-07-27T21:00:28.930Z,2.97
2022-07-27T21:02:57.577Z,3.00
2022-07-27T21:05:27.190Z,2.80
2022-07-27T21:07:56.177Z,2.60
2022-07-27T21:10:24.783Z,2.65
2022-07-27T21:12:53.111Z,2.60
2022-07-27T21:15:21.227Z,2.47
2022-07-27T21:17:50.904Z,2.53
2022-07-27T21:20:19.581Z,2.60
2022-07-27T21:23:07.696Z,2.25
2022-07-27T21:25:35.021Z,2.20
2022-07-27T21:28:03.958Z,2.20
2022-07-27T21:30:32.115Z,2.25
2022-07-27T21:33:01.842Z,2.13
2022-07-27T21:35:32.953Z,2.00
2022-07-27T21:38:02.210Z,2.95
2022-07-27T21:40:30.388Z,2.08
2022-07-27T21:42:58.579Z,1.88
2022-07-27T21:45:26.822Z,1.90
2022-07-27T21:47:54.983Z,1.85
2022-07-27T21:50:24.533Z,1.90
2022-07-27T21:52:53.319Z,1.80
2022-07-27T21:55:22.833Z,1.73
2022-07-27T21:57:52.184Z,1.73
2022-07-27T22:00:24.653Z,1.70
2022-07-27T22:02:53.253Z,1.60
2022-07-27T22:05:22.809Z,1.80
2022-07-27T22:07:52.613Z,1.55
2022-07-27T22:10:20.900Z,1.52
2022-07-27T22:12:49.071Z,1.65
2022-07-27T22:15:17.267Z,1.75
2022-07-27T22:17:46.704Z,1.60
2022-07-27T22:22:47.600Z,1.80
2022-07-27T22:25:17.643Z,1.58
2022-07-27T22:27:45.883Z,2.00
2022-07-27T22:30:15.361Z,1.90
2022-07-27T22:32:43.883Z,1.40
2022-07-27T22:35:12.210Z,1.60
2022-07-27T22:37:40.353Z,1.50
2022-07-27T22:40:09.706Z,1.70
2022-07-27T22:42:39.566Z,1.65
2022-07-27T22:45:09.412Z,1.58
2022-07-27T22:47:38.204Z,1.52
2022-07-27T22:50:08.094Z,1.70
2022-07-27T22:52:42.042Z,1.55
2022-07-27T22:55:10.610Z,1.77
2022-07-27T22:57:40.114Z,1.60
2022-07-27T23:00:10.164Z,1.70
2022-07-27T23:02:39.344Z,1.80
2022-07-27T23:05:08.296Z,1.52
2022-07-27T23:07:36.611Z,1.40
2022-07-27T23:10:05.353Z,1.55
2022-07-27T23:12:33.710Z,1.90
2022-07-27T23:15:03.223Z,1.80
2022-07-27T23:17:31.471Z,1.60
2022-07-27T23:19:59.542Z,1.75
2022-07-27T23:22:27.708Z,1.73
2022-07-27T23:24:55.825Z,1.70
2022-07-27T23:27:24.749Z,1.90
2022-07-27T23:29:52.862Z,1.90
2022-07-27T23:32:22.456Z,1.98
2022-07-27T23:34:50.589Z,2.00
2022-07-27T23:37:18.697Z,1.70
2022-07-27T23:39:46.810Z,2.00
2022-07-27T23:42:14.870Z,1.70
2022-07-27T23:44:43.007Z,1.90
2022-07-27T23:47:13.321Z,1.90
2022-07-27T23:49:42.962Z,1.70
2022-07-27T23:52:11.073Z,1.60
2022-07-27T23:54:39.218Z,1.73
2022-07-27T23:57:08.400Z,1.70
2022-07-27T23:59:36.988Z,1.75
